Terminal Aerodrome Forecast
Issued by NWS

Home | Current Version | Previous Version | Text Only | Print | Product List | Glossary On
Versions: 1 2 3 4 5 6 7 8 9 10 11 12 13 14
000
FTUS42 KMLB 122300
TAFISM
TAF
KISM 122323Z 1300/1324 07006KT P6SM VCSH SCT030 BKN050
      TEMPO 1300/1301 -RA BKN035
     FM130200 09004KT P6SM FEW040 SCT120 BKN200
     FM131400 16005KT P6SM SCT025 BKN250
     FM131900 11007KT P6SM VCTS SCT040CB BKN100
      AMD NOT SKED 1302/1311=

USA.gov is the U.S. government's official web portal to all federal, state and local government web resources and services.